sensor_id;sensor_type;location;lat;lon;timestamp;pressure;altitude;pressure_sealevel;temperature;humidity
27984;BME280;15317;50.360;8.726;2022-12-10T00:02:44;98475.50;;;-0.78;100.00
27984;BME280;15317;50.360;8.726;2022-12-10T00:06:48;98478.38;;;-0.82;100.00
27984;BME280;15317;50.360;8.726;2022-12-10T00:10:50;98480.22;;;-0.82;100.00
27984;BME280;15317;50.360;8.726;2022-12-10T00:14:52;98477.00;;;-0.87;100.00
27984;BME280;15317;50.360;8.726;2022-12-10T00:18:54;98483.03;;;-0.96;100.00
27984;BME280;15317;50.360;8.726;2022-12-10T00:22:57;98490.59;;;-0.90;100.00
27984;BME280;15317;50.360;8.726;2022-12-10T00:26:59;98484.50;;;-0.92;100.00
27984;BME280;15317;50.360;8.726;2022-12-10T00:31:03;98494.41;;;-0.94;100.00
27984;BME280;15317;50.360;8.726;2022-12-10T00:35:06;98492.50;;;-0.92;100.00
27984;BME280;15317;50.360;8.726;2022-12-10T00:39:11;98485.00;;;-0.87;100.00
27984;BME280;15317;50.360;8.726;2022-12-10T00:43:14;98486.81;;;-0.88;100.00
27984;BME280;15317;50.360;8.726;2022-12-10T00:47:16;98483.66;;;-0.93;100.00
27984;BME280;15317;50.360;8.726;2022-12-10T00:51:20;98478.88;;;-1.00;100.00
27984;BME280;15317;50.360;8.726;2022-12-10T00:55:23;98482.28;;;-0.98;100.00
27984;BME280;15317;50.360;8.726;2022-12-10T00:59:25;98477.19;;;-1.01;100.00
27984;BME280;15317;50.360;8.726;2022-12-10T01:03:27;98478.06;;;-1.13;100.00
27984;BME280;15317;50.360;8.726;2022-12-10T01:07:29;98477.88;;;-1.10;100.00
27984;BME280;15317;50.360;8.726;2022-12-10T01:11:35;98479.88;;;-1.14;100.00
27984;BME280;15317;50.360;8.726;2022-12-10T01:15:38;98481.94;;;-1.17;100.00
27984;BME280;15317;50.360;8.726;2022-12-10T01:19:40;98486.88;;;-1.24;100.00
27984;BME280;15317;50.360;8.726;2022-12-10T01:23:44;98491.34;;;-1.25;100.00
27984;BME280;15317;50.360;8.726;2022-12-10T01:27:47;98490.06;;;-1.32;100.00
27984;BME280;15317;50.360;8.726;2022-12-10T01:31:57;98503.59;;;-1.35;100.00
27984;BME280;15317;50.360;8.726;2022-12-10T01:36:02;98510.13;;;-1.39;100.00
27984;BME280;15317;50.360;8.726;2022-12-10T01:40:05;98514.34;;;-1.36;100.00
27984;BME280;15317;50.360;8.726;2022-12-10T01:48:44;98509.47;;;-1.42;100.00
27984;BME280;15317;50.360;8.726;2022-12-10T01:52:47;98520.66;;;-1.37;100.00
27984;BME280;15317;50.360;8.726;2022-12-10T01:56:50;98522.25;;;-1.35;100.00
27984;BME280;15317;50.360;8.726;2022-12-10T02:01:05;98530.53;;;-1.27;100.00
27984;BME280;15317;50.360;8.726;2022-12-10T02:05:18;98523.81;;;-1.20;100.00
27984;BME280;15317;50.360;8.726;2022-12-10T02:09:27;98524.03;;;-1.10;100.00
27984;BME280;15317;50.360;8.726;2022-12-10T02:13:38;98524.28;;;-1.02;100.00
27984;BME280;15317;50.360;8.726;2022-12-10T02:17:43;98522.78;;;-0.93;100.00
27984;BME280;15317;50.360;8.726;2022-12-10T02:21:50;98515.75;;;-0.94;100.00
27984;BME280;15317;50.360;8.726;2022-12-10T02:25:58;98519.16;;;-0.92;100.00
27984;BME280;15317;50.360;8.726;2022-12-10T02:30:03;98513.06;;;-0.94;100.00
27984;BME280;15317;50.360;8.726;2022-12-10T02:34:08;98514.03;;;-0.95;100.00
27984;BME280;15317;50.360;8.726;2022-12-10T02:38:13;98508.69;;;-0.95;100.00
27984;BME280;15317;50.360;8.726;2022-12-10T02:42:19;98508.38;;;-0.91;100.00
27984;BME280;15317;50.360;8.726;2022-12-10T02:46:25;98503.38;;;-0.95;100.00
27984;BME280;15317;50.360;8.726;2022-12-10T02:50:30;98499.75;;;-0.94;100.00
27984;BME280;15317;50.360;8.726;2022-12-10T02:54:38;98509.78;;;-0.98;100.00
27984;BME280;15317;50.360;8.726;2022-12-10T02:58:49;98504.56;;;-0.99;100.00
27984;BME280;15317;50.360;8.726;2022-12-10T03:03:13;98513.53;;;-1.00;100.00
27984;BME280;15317;50.360;8.726;2022-12-10T03:07:25;98508.94;;;-0.98;100.00
27984;BME280;15317;50.360;8.726;2022-12-10T03:11:29;98508.66;;;-1.06;100.00
27984;BME280;15317;50.360;8.726;2022-12-10T03:15:34;98502.34;;;-1.05;100.00
27984;BME280;15317;50.360;8.726;2022-12-10T03:19:42;98502.97;;;-1.02;100.00
27984;BME280;15317;50.360;8.726;2022-12-10T03:23:47;98510.41;;;-0.94;100.00
27984;BME280;15317;50.360;8.726;2022-12-10T03:27:54;98507.25;;;-0.99;100.00
27984;BME280;15317;50.360;8.726;2022-12-10T03:31:58;98503.63;;;-0.98;100.00
27984;BME280;15317;50.360;8.726;2022-12-10T03:36:03;98500.72;;;-0.95;100.00
27984;BME280;15317;50.360;8.726;2022-12-10T03:40:08;98499.75;;;-0.94;100.00
27984;BME280;15317;50.360;8.726;2022-12-10T03:44:10;98492.59;;;-0.94;100.00
27984;BME280;15317;50.360;8.726;2022-12-10T03:48:13;98495.16;;;-0.92;100.00
27984;BME280;15317;50.360;8.726;2022-12-10T03:52:16;98493.97;;;-0.88;100.00
27984;BME280;15317;50.360;8.726;2022-12-10T03:56:19;98493.75;;;-0.85;100.00
27984;BME280;15317;50.360;8.726;2022-12-10T04:00:21;98501.53;;;-0.82;100.00
27984;BME280;15317;50.360;8.726;2022-12-10T04:04:23;98489.84;;;-0.68;100.00
27984;BME280;15317;50.360;8.726;2022-12-10T04:08:27;98492.16;;;-0.64;100.00
27984;BME280;15317;50.360;8.726;2022-12-10T04:12:29;98502.59;;;-0.61;100.00
27984;BME280;15317;50.360;8.726;2022-12-10T04:16:33;98506.50;;;-0.54;100.00
27984;BME280;15317;50.360;8.726;2022-12-10T04:20:35;98508.50;;;-0.45;100.00
27984;BME280;15317;50.360;8.726;2022-12-10T04:24:56;98500.50;;;-0.45;100.00
27984;BME280;15317;50.360;8.726;2022-12-10T04:29:15;98508.03;;;-0.38;100.00
27984;BME280;15317;50.360;8.726;2022-12-10T04:33:17;98508.28;;;-0.42;100.00
27984;BME280;15317;50.360;8.726;2022-12-10T04:37:19;98506.31;;;-0.40;100.00
27984;BME280;15317;50.360;8.726;2022-12-10T04:41:23;98508.03;;;-0.38;100.00
27984;BME280;15317;50.360;8.726;2022-12-10T04:45:25;98509.72;;;-0.37;100.00
27984;BME280;15317;50.360;8.726;2022-12-10T04:49:27;98519.72;;;-0.28;100.00
27984;BME280;15317;50.360;8.726;2022-12-10T04:53:29;98513.75;;;-0.32;100.00
27984;BME280;15317;50.360;8.726;2022-12-10T04:57:33;98517.53;;;-0.23;100.00
27984;BME280;15317;50.360;8.726;2022-12-10T05:01:35;98517.75;;;-0.26;100.00
27984;BME280;15317;50.360;8.726;2022-12-10T05:05:37;98519.47;;;-0.25;100.00
27984;BME280;15317;50.360;8.726;2022-12-10T05:09:39;98511.72;;;-0.28;100.00
27984;BME280;15317;50.360;8.726;2022-12-10T05:13:43;98515.63;;;-0.21;100.00
27984;BME280;15317;50.360;8.726;2022-12-10T05:17:45;98511.47;;;-0.25;100.00
27984;BME280;15317;50.360;8.726;2022-12-10T05:21:47;98517.06;;;-0.28;100.00
27984;BME280;15317;50.360;8.726;2022-12-10T05:26:08;98517.06;;;-0.28;100.00
27984;BME280;15317;50.360;8.726;2022-12-10T05:30:12;98519.00;;;-0.19;100.00
27984;BME280;15317;50.360;8.726;2022-12-10T05:34:14;98529.06;;;-0.23;100.00
27984;BME280;15317;50.360;8.726;2022-12-10T05:38:16;98520.50;;;-0.15;100.00
27984;BME280;15317;50.360;8.726;2022-12-10T05:42:18;98525.44;;;-0.22;100.00
27984;BME280;15317;50.360;8.726;2022-12-10T05:46:23;98529.44;;;-0.27;100.00
27984;BME280;15317;50.360;8.726;2022-12-10T05:50:26;98534.53;;;-0.24;100.00
27984;BME280;15317;50.360;8.726;2022-12-10T05:54:28;98531.84;;;-0.24;100.00
27984;BME280;15317;50.360;8.726;2022-12-10T05:58:30;98538.72;;;-0.33;100.00
27984;BME280;15317;50.360;8.726;2022-12-10T06:02:34;98531.69;;;-0.34;100.00
27984;BME280;15317;50.360;8.726;2022-12-10T06:06:37;98537.16;;;-0.35;100.00
27984;BME280;15317;50.360;8.726;2022-12-10T06:10:39;98550.41;;;-0.47;100.00
27984;BME280;15317;50.360;8.726;2022-12-10T06:14:41;98548.00;;;-0.50;100.00
27984;BME280;15317;50.360;8.726;2022-12-10T06:18:45;98551.84;;;-0.54;100.00
27984;BME280;15317;50.360;8.726;2022-12-10T06:22:47;98540.09;;;-0.51;100.00
27984;BME280;15317;50.360;8.726;2022-12-10T06:26:49;98547.50;;;-0.55;100.00
27984;BME280;15317;50.360;8.726;2022-12-10T06:30:51;98551.34;;;-0.59;100.00
27984;BME280;15317;50.360;8.726;2022-12-10T06:34:55;98557.13;;;-0.65;100.00
27984;BME280;15317;50.360;8.726;2022-12-10T06:38:57;98568.19;;;-0.58;100.00
27984;BME280;15317;50.360;8.726;2022-12-10T06:42:59;98567.03;;;-0.67;100.00
27984;BME280;15317;50.360;8.726;2022-12-10T06:47:01;98563.19;;;-0.63;100.00
27984;BME280;15317;50.360;8.726;2022-12-10T06:51:05;98566.72;;;-0.62;100.00
27984;BME280;15317;50.360;8.726;2022-12-10T06:55:08;98575.13;;;-0.56;100.00
27984;BME280;15317;50.360;8.726;2022-12-10T06:59:10;98580.31;;;-0.54;100.00
27984;BME280;15317;50.360;8.726;2022-12-10T07:03:12;98587.59;;;-0.56;100.00
27984;BME280;15317;50.360;8.726;2022-12-10T07:07:16;98591.84;;;-0.54;100.00
27984;BME280;15317;50.360;8.726;2022-12-10T07:11:20;98594.75;;;-0.57;100.00
27984;BME280;15317;50.360;8.726;2022-12-10T07:15:22;98586.91;;;-0.47;100.00
27984;BME280;15317;50.360;8.726;2022-12-10T07:19:25;98587.25;;;-0.52;100.00
27984;BME280;15317;50.360;8.726;2022-12-10T07:23:28;98595.16;;;-0.50;100.00
27984;BME280;15317;50.360;8.726;2022-12-10T07:27:30;98609.34;;;-0.50;100.00
27984;BME280;15317;50.360;8.726;2022-12-10T07:31:33;98604.50;;;-0.45;100.00
27984;BME280;15317;50.360;8.726;2022-12-10T07:35:37;98620.31;;;-0.42;100.00
27984;BME280;15317;50.360;8.726;2022-12-10T07:39:41;98618.75;;;-0.33;100.00
27984;BME280;15317;50.360;8.726;2022-12-10T07:43:45;98616.22;;;-0.34;100.00
27984;BME280;15317;50.360;8.726;2022-12-10T07:47:47;98614.91;;;-0.29;100.00
27984;BME280;15317;50.360;8.726;2022-12-10T07:51:49;98620.25;;;-0.29;100.00
27984;BME280;15317;50.360;8.726;2022-12-10T07:55:53;98621.72;;;-0.25;100.00
27984;BME280;15317;50.360;8.726;2022-12-10T07:59:55;98632.22;;;-0.34;100.00
27984;BME280;15317;50.360;8.726;2022-12-10T08:03:59;98631.38;;;-0.35;100.00
27984;BME280;15317;50.360;8.726;2022-12-10T08:08:01;98628.38;;;-0.30;100.00
27984;BME280;15317;50.360;8.726;2022-12-10T08:12:07;98621.09;;;-0.28;100.00
27984;BME280;15317;50.360;8.726;2022-12-10T08:16:12;98631.78;;;-0.28;100.00
27984;BME280;15317;50.360;8.726;2022-12-10T08:20:15;98628.56;;;-0.21;100.00
27984;BME280;15317;50.360;8.726;2022-12-10T08:24:17;98635.69;;;-0.21;100.00
27984;BME280;15317;50.360;8.726;2022-12-10T08:28:20;98641.69;;;-0.07;100.00
27984;BME280;15317;50.360;8.726;2022-12-10T08:32:22;98639.38;;;-0.11;100.00
27984;BME280;15317;50.360;8.726;2022-12-10T08:36:24;98650.22;;;-0.02;100.00
27984;BME280;15317;50.360;8.726;2022-12-10T08:40:26;98642.13;;;0.00;100.00
27984;BME280;15317;50.360;8.726;2022-12-10T08:44:30;98650.63;;;0.05;100.00
27984;BME280;15317;50.360;8.726;2022-12-10T08:48:32;98652.34;;;0.06;100.00
27984;BME280;15317;50.360;8.726;2022-12-10T08:52:34;98667.88;;;0.12;100.00
27984;BME280;15317;50.360;8.726;2022-12-10T08:56:37;98668.75;;;0.13;100.00
27984;BME280;15317;50.360;8.726;2022-12-10T09:00:41;98670.84;;;0.20;100.00
27984;BME280;15317;50.360;8.726;2022-12-10T09:04:44;98668.03;;;0.22;100.00
27984;BME280;15317;50.360;8.726;2022-12-10T09:08:47;98670.00;;;0.20;100.00
27984;BME280;15317;50.360;8.726;2022-12-10T09:12:49;98674.69;;;0.16;100.00
27984;BME280;15317;50.360;8.726;2022-12-10T09:16:52;98681.75;;;0.17;100.00
27984;BME280;15317;50.360;8.726;2022-12-10T09:20:54;98684.22;;;0.31;100.00
27984;BME280;15317;50.360;8.726;2022-12-10T09:24:57;98693.66;;;0.24;100.00
27984;BME280;15317;50.360;8.726;2022-12-10T09:28:59;98691.00;;;0.24;100.00
27984;BME280;15317;50.360;8.726;2022-12-10T09:33:02;98688.50;;;0.34;100.00
27984;BME280;15317;50.360;8.726;2022-12-10T09:37:04;98689.31;;;0.34;100.00
27984;BME280;15317;50.360;8.726;2022-12-10T09:41:27;98696.63;;;0.32;100.00
27984;BME280;15317;50.360;8.726;2022-12-10T09:45:40;98694.44;;;0.37;100.00
27984;BME280;15317;50.360;8.726;2022-12-10T09:49:59;98686.22;;;0.41;100.00
27984;BME280;15317;50.360;8.726;2022-12-10T09:54:10;98702.94;;;0.43;100.00
27984;BME280;15317;50.360;8.726;2022-12-10T09:58:18;98685.75;;;0.47;100.00
27984;BME280;15317;50.360;8.726;2022-12-10T10:02:23;98695.06;;;0.41;100.00
27984;BME280;15317;50.360;8.726;2022-12-10T10:06:27;98686.31;;;0.39;100.00
27984;BME280;15317;50.360;8.726;2022-12-10T10:10:31;98683.53;;;0.41;100.00
27984;BME280;15317;50.360;8.726;2022-12-10T10:14:34;98688.63;;;0.44;100.00
27984;BME280;15317;50.360;8.726;2022-12-10T10:18:39;98696.63;;;0.32;100.00
27984;BME280;15317;50.360;8.726;2022-12-10T10:22:44;98689.72;;;0.41;100.00
27984;BME280;15317;50.360;8.726;2022-12-10T10:26:46;98687.00;;;0.30;100.00
27984;BME280;15317;50.360;8.726;2022-12-10T10:30:50;98696.44;;;0.23;100.00
27984;BME280;15317;50.360;8.726;2022-12-10T10:34:55;98691.88;;;0.36;100.00
27984;BME280;15317;50.360;8.726;2022-12-10T10:39:08;98689.50;;;0.55;100.00
27984;BME280;15317;50.360;8.726;2022-12-10T10:43:14;98700.53;;;0.86;100.00
27984;BME280;15317;50.360;8.726;2022-12-10T10:47:25;98698.41;;;1.13;100.00
27984;BME280;15317;50.360;8.726;2022-12-10T10:51:28;98697.53;;;1.01;100.00
27984;BME280;15317;50.360;8.726;2022-12-10T10:55:33;98689.53;;;1.12;100.00
27984;BME280;15317;50.360;8.726;2022-12-10T10:59:36;98684.44;;;1.21;100.00
27984;BME280;15317;50.360;8.726;2022-12-10T11:03:46;98692.22;;;1.35;100.00
27984;BME280;15317;50.360;8.726;2022-12-10T11:07:57;98687.34;;;1.40;100.00
27984;BME280;15317;50.360;8.726;2022-12-10T11:12:03;98691.34;;;1.56;100.00
27984;BME280;15317;50.360;8.726;2022-12-10T11:16:12;98685.75;;;1.59;100.00
27984;BME280;15317;50.360;8.726;2022-12-10T11:20:18;98698.75;;;1.64;100.00
27984;BME280;15317;50.360;8.726;2022-12-10T11:24:20;98689.75;;;1.65;100.00
27984;BME280;15317;50.360;8.726;2022-12-10T11:28:40;98690.06;;;1.94;99.54
27984;BME280;15317;50.360;8.726;2022-12-10T11:32:57;98688.19;;;2.06;97.11
27984;BME280;15317;50.360;8.726;2022-12-10T11:37:10;98684.03;;;2.13;92.43
27984;BME280;15317;50.360;8.726;2022-12-10T11:41:19;98696.22;;;2.17;92.69
27984;BME280;15317;50.360;8.726;2022-12-10T11:45:32;98700.81;;;2.26;91.12
27984;BME280;15317;50.360;8.726;2022-12-10T11:49:51;98697.09;;;2.17;90.99
27984;BME280;15317;50.360;8.726;2022-12-10T11:54:09;98701.47;;;2.39;92.02
27984;BME280;15317;50.360;8.726;2022-12-10T11:58:24;98710.69;;;2.57;90.38
27984;BME280;15317;50.360;8.726;2022-12-10T12:02:49;98708.66;;;2.70;89.92
27984;BME280;15317;50.360;8.726;2022-12-10T12:07:15;98718.44;;;2.60;88.93
27984;BME280;15317;50.360;8.726;2022-12-10T12:11:31;98706.78;;;2.29;89.38
27984;BME280;15317;50.360;8.726;2022-12-10T12:15:39;98702.19;;;2.52;89.97
27984;BME280;15317;50.360;8.726;2022-12-10T12:19:48;98713.78;;;2.42;89.98
27984;BME280;15317;50.360;8.726;2022-12-10T12:23:55;98713.66;;;2.43;89.66
27984;BME280;15317;50.360;8.726;2022-12-10T12:28:03;98711.28;;;2.29;90.00
27984;BME280;15317;50.360;8.726;2022-12-10T12:32:12;98712.03;;;2.20;90.39
27984;BME280;15317;50.360;8.726;2022-12-10T12:36:20;98702.59;;;2.05;88.86
27984;BME280;15317;50.360;8.726;2022-12-10T12:40:28;98697.72;;;1.98;90.03
27984;BME280;15317;50.360;8.726;2022-12-10T12:44:35;98703.91;;;1.99;92.11
27984;BME280;15317;50.360;8.726;2022-12-10T12:48:50;98716.19;;;2.13;91.15
27984;BME280;15317;50.360;8.726;2022-12-10T12:52:58;98718.25;;;2.20;91.42
27984;BME280;15317;50.360;8.726;2022-12-10T12:57:05;98726.66;;;2.16;92.65
27984;BME280;15317;50.360;8.726;2022-12-10T13:01:19;98732.19;;;2.35;91.41
27984;BME280;15317;50.360;8.726;2022-12-10T13:05:26;98736.47;;;2.37;90.07
27984;BME280;15317;50.360;8.726;2022-12-10T13:09:32;98734.16;;;2.33;89.40
27984;BME280;15317;50.360;8.726;2022-12-10T13:13:35;98724.50;;;2.10;89.17
27984;BME280;15317;50.360;8.726;2022-12-10T13:17:38;98727.41;;;2.07;88.80
27984;BME280;15317;50.360;8.726;2022-12-10T13:21:57;98731.34;;;1.80;91.30
27984;BME280;15317;50.360;8.726;2022-12-10T13:26:01;98743.16;;;1.78;90.90
27984;BME280;15317;50.360;8.726;2022-12-10T13:30:25;98747.88;;;1.85;91.98
27984;BME280;15317;50.360;8.726;2022-12-10T13:34:33;98745.69;;;1.79;91.99
27984;BME280;15317;50.360;8.726;2022-12-10T13:38:40;98753.50;;;1.71;92.57
27984;BME280;15317;50.360;8.726;2022-12-10T13:42:45;98748.91;;;1.62;92.70
27984;BME280;15317;50.360;8.726;2022-12-10T13:47:25;98750.09;;;1.47;93.69
27984;BME280;15317;50.360;8.726;2022-12-10T13:51:39;98762.50;;;1.48;94.93
27984;BME280;15317;50.360;8.726;2022-12-10T13:55:49;98766.63;;;1.41;93.90
27984;BME280;15317;50.360;8.726;2022-12-10T14:00:06;98770.06;;;1.43;95.23
27984;BME280;15317;50.360;8.726;2022-12-10T14:04:26;98770.75;;;1.45;93.58
27984;BME280;15317;50.360;8.726;2022-12-10T14:08:36;98774.66;;;1.41;92.92
27984;BME280;15317;50.360;8.726;2022-12-10T14:12:41;98775.75;;;1.27;95.57
27984;BME280;15317;50.360;8.726;2022-12-10T14:16:46;98781.09;;;1.27;95.71
27984;BME280;15317;50.360;8.726;2022-12-10T14:20:51;98783.88;;;1.26;95.45
27984;BME280;15317;50.360;8.726;2022-12-10T14:24:58;98788.84;;;1.19;96.62
27984;BME280;15317;50.360;8.726;2022-12-10T14:29:16;98798.56;;;1.09;96.20
27984;BME280;15317;50.360;8.726;2022-12-10T14:33:22;98795.16;;;1.07;96.49
27984;BME280;15317;50.360;8.726;2022-12-10T14:37:29;98801.81;;;1.01;96.94
27984;BME280;15317;50.360;8.726;2022-12-10T14:41:32;98808.13;;;1.00;97.21
27984;BME280;15317;50.360;8.726;2022-12-10T14:45:41;98817.72;;;1.03;96.91
27984;BME280;15317;50.360;8.726;2022-12-10T14:49:47;98811.50;;;0.91;95.73
27984;BME280;15317;50.360;8.726;2022-12-10T14:53:50;98826.34;;;0.71;96.30
27984;BME280;15317;50.360;8.726;2022-12-10T14:58:00;98821.53;;;0.53;97.05
27984;BME280;15317;50.360;8.726;2022-12-10T15:02:12;98826.97;;;0.51;97.83
27984;BME280;15317;50.360;8.726;2022-12-10T15:06:21;98831.41;;;0.39;99.72
27984;BME280;15317;50.360;8.726;2022-12-10T15:10:28;98832.38;;;0.38;98.73
27984;BME280;15317;50.360;8.726;2022-12-10T15:14:32;98834.00;;;0.28;100.00
27984;BME280;15317;50.360;8.726;2022-12-10T15:18:40;98834.91;;;0.16;100.00
27984;BME280;15317;50.360;8.726;2022-12-10T15:22:44;98830.97;;;0.09;100.00
27984;BME280;15317;50.360;8.726;2022-12-10T15:26:50;98833.13;;;0.04;100.00
27984;BME280;15317;50.360;8.726;2022-12-10T15:30:56;98829.78;;;0.00;100.00
27984;BME280;15317;50.360;8.726;2022-12-10T15:35:00;98836.44;;;-0.05;100.00
27984;BME280;15317;50.360;8.726;2022-12-10T15:39:15;98832.06;;;-0.06;100.00
27984;BME280;15317;50.360;8.726;2022-12-10T15:43:26;98847.88;;;-0.16;100.00
27984;BME280;15317;50.360;8.726;2022-12-10T15:47:30;98849.03;;;-0.20;100.00
27984;BME280;15317;50.360;8.726;2022-12-10T15:51:34;98843.28;;;-0.26;100.00
27984;BME280;15317;50.360;8.726;2022-12-10T15:55:38;98843.53;;;-0.29;100.00
27984;BME280;15317;50.360;8.726;2022-12-10T15:59:40;98846.63;;;-0.35;100.00
27984;BME280;15317;50.360;8.726;2022-12-10T16:03:42;98847.06;;;-0.42;100.00
27984;BME280;15317;50.360;8.726;2022-12-10T16:07:46;98855.47;;;-0.48;100.00
27984;BME280;15317;50.360;8.726;2022-12-10T16:11:50;98856.75;;;-0.53;100.00
27984;BME280;15317;50.360;8.726;2022-12-10T16:15:55;98847.34;;;-0.59;100.00
27984;BME280;15317;50.360;8.726;2022-12-10T16:19:58;98846.59;;;-0.61;100.00
27984;BME280;15317;50.360;8.726;2022-12-10T16:24:01;98851.50;;;-0.67;100.00
27984;BME280;15317;50.360;8.726;2022-12-10T16:28:06;98843.72;;;-0.70;100.00
27984;BME280;15317;50.360;8.726;2022-12-10T16:32:09;98848.63;;;-0.77;100.00
27984;BME280;15317;50.360;8.726;2022-12-10T16:36:15;98850.75;;;-0.82;100.00
27984;BME280;15317;50.360;8.726;2022-12-10T16:40:25;98849.25;;;-0.86;100.00
27984;BME280;15317;50.360;8.726;2022-12-10T16:44:29;98856.47;;;-0.88;100.00
27984;BME280;15317;50.360;8.726;2022-12-10T16:48:34;98860.97;;;-0.89;100.00
27984;BME280;15317;50.360;8.726;2022-12-10T16:52:39;98856.72;;;-0.91;100.00
27984;BME280;15317;50.360;8.726;2022-12-10T16:56:42;98862.38;;;-0.96;100.00
27984;BME280;15317;50.360;8.726;2022-12-10T17:00:54;98873.13;;;-0.97;100.00
27984;BME280;15317;50.360;8.726;2022-12-10T17:04:56;98871.81;;;-1.04;100.00
27984;BME280;15317;50.360;8.726;2022-12-10T17:08:58;98877.16;;;-1.04;100.00
27984;BME280;15317;50.360;8.726;2022-12-10T17:13:01;98875.63;;;-1.08;100.00
27984;BME280;15317;50.360;8.726;2022-12-10T17:17:04;98877.97;;;-1.16;100.00
27984;BME280;15317;50.360;8.726;2022-12-10T17:21:06;98879.44;;;-1.25;100.00
27984;BME280;15317;50.360;8.726;2022-12-10T17:25:09;98886.00;;;-1.31;100.00
27984;BME280;15317;50.360;8.726;2022-12-10T17:29:14;98884.81;;;-1.39;100.00
27984;BME280;15317;50.360;8.726;2022-12-10T17:33:20;98880.16;;;-1.50;100.00
27984;BME280;15317;50.360;8.726;2022-12-10T17:37:23;98886.75;;;-1.55;100.00
27984;BME280;15317;50.360;8.726;2022-12-10T17:41:25;98891.22;;;-1.56;100.00
27984;BME280;15317;50.360;8.726;2022-12-10T17:45:28;98893.88;;;-1.56;100.00
27984;BME280;15317;50.360;8.726;2022-12-10T17:49:31;98897.50;;;-1.57;100.00
27984;BME280;15317;50.360;8.726;2022-12-10T17:53:35;98903.97;;;-1.61;100.00
27984;BME280;15317;50.360;8.726;2022-12-10T17:57:37;98904.19;;;-1.64;100.00
27984;BME280;15317;50.360;8.726;2022-12-10T18:01:39;98904.38;;;-1.67;100.00
27984;BME280;15317;50.360;8.726;2022-12-10T18:05:43;98911.19;;;-1.63;100.00
27984;BME280;15317;50.360;8.726;2022-12-10T18:09:46;98909.13;;;-1.58;100.00
27984;BME280;15317;50.360;8.726;2022-12-10T18:13:48;98919.94;;;-1.61;100.00
27984;BME280;15317;50.360;8.726;2022-12-10T18:17:51;98917.59;;;-1.66;100.00
27984;BME280;15317;50.360;8.726;2022-12-10T18:21:55;98922.69;;;-1.63;100.00
27984;BME280;15317;50.360;8.726;2022-12-10T18:25:57;98922.69;;;-1.63;100.00
27984;BME280;15317;50.360;8.726;2022-12-10T18:29:59;98924.72;;;-1.66;100.00
27984;BME280;15317;50.360;8.726;2022-12-10T18:34:05;98919.56;;;-1.69;100.00
27984;BME280;15317;50.360;8.726;2022-12-10T18:38:12;98923.78;;;-1.79;100.00
27984;BME280;15317;50.360;8.726;2022-12-10T18:42:14;98929.28;;;-1.82;100.00
27984;BME280;15317;50.360;8.726;2022-12-10T18:46:20;98925.31;;;-1.89;100.00
27984;BME280;15317;50.360;8.726;2022-12-10T18:50:24;98924.25;;;-1.87;100.00
27984;BME280;15317;50.360;8.726;2022-12-10T18:54:28;98922.94;;;-1.94;100.00
27984;BME280;15317;50.360;8.726;2022-12-10T18:58:31;98928.44;;;-1.97;100.00
27984;BME280;15317;50.360;8.726;2022-12-10T19:02:36;98928.91;;;-2.05;100.00
27984;BME280;15317;50.360;8.726;2022-12-10T19:06:39;98929.19;;;-2.09;100.00
27984;BME280;15317;50.360;8.726;2022-12-10T19:10:44;98931.94;;;-2.11;100.00
27984;BME280;15317;50.360;8.726;2022-12-10T19:14:46;98934.25;;;-2.19;100.00
27984;BME280;15317;50.360;8.726;2022-12-10T19:18:48;98924.34;;;-2.17;100.00
27984;BME280;15317;50.360;8.726;2022-12-10T19:22:52;98932.72;;;-2.23;100.00
27984;BME280;15317;50.360;8.726;2022-12-10T19:26:55;98928.06;;;-2.19;100.00
27984;BME280;15317;50.360;8.726;2022-12-10T19:30:58;98932.91;;;-2.26;100.00
27984;BME280;15317;50.360;8.726;2022-12-10T19:35:00;98923.97;;;-2.25;100.00
27984;BME280;15317;50.360;8.726;2022-12-10T19:39:03;98921.59;;;-2.29;100.00
27984;BME280;15317;50.360;8.726;2022-12-10T19:43:10;98923.69;;;-2.34;100.00
27984;BME280;15317;50.360;8.726;2022-12-10T19:47:14;98928.16;;;-2.35;100.00
27984;BME280;15317;50.360;8.726;2022-12-10T19:51:18;98931.56;;;-2.33;100.00
27984;BME280;15317;50.360;8.726;2022-12-10T19:55:22;98933.91;;;-2.43;100.00
27984;BME280;15317;50.360;8.726;2022-12-10T19:59:27;98929.94;;;-2.35;100.00
27984;BME280;15317;50.360;8.726;2022-12-10T20:03:32;98927.28;;;-2.35;100.00
27984;BME280;15317;50.360;8.726;2022-12-10T20:07:37;98931.19;;;-2.41;100.00
27984;BME280;15317;50.360;8.726;2022-12-10T20:11:40;98925.47;;;-2.49;100.00
27984;BME280;15317;50.360;8.726;2022-12-10T20:15:45;98931.44;;;-2.46;100.00
27984;BME280;15317;50.360;8.726;2022-12-10T20:19:48;98930.94;;;-2.52;100.00
27984;BME280;15317;50.360;8.726;2022-12-10T20:23:51;98939.53;;;-2.47;100.00
27984;BME280;15317;50.360;8.726;2022-12-10T20:27:53;98931.31;;;-2.58;100.00
27984;BME280;15317;50.360;8.726;2022-12-10T20:31:57;98936.25;;;-2.52;100.00
27984;BME280;15317;50.360;8.726;2022-12-10T20:36:01;98933.81;;;-2.55;100.00
27984;BME280;15317;50.360;8.726;2022-12-10T20:40:03;98933.53;;;-2.51;100.00
27984;BME280;15317;50.360;8.726;2022-12-10T20:44:06;98934.59;;;-2.53;100.00
27984;BME280;15317;50.360;8.726;2022-12-10T20:48:10;98939.69;;;-2.50;100.00
27984;BME280;15317;50.360;8.726;2022-12-10T20:52:12;98934.59;;;-2.53;100.00
27984;BME280;15317;50.360;8.726;2022-12-10T20:56:16;98931.34;;;-2.44;100.00
27984;BME280;15317;50.360;8.726;2022-12-10T21:00:20;98925.00;;;-2.42;100.00
27984;BME280;15317;50.360;8.726;2022-12-10T21:04:24;98930.88;;;-2.36;100.00
27984;BME280;15317;50.360;8.726;2022-12-10T21:08:27;98924.53;;;-2.34;100.00
27984;BME280;15317;50.360;8.726;2022-12-10T21:12:45;98927.19;;;-2.34;100.00
27984;BME280;15317;50.360;8.726;2022-12-10T21:16:47;98923.00;;;-2.38;100.00
27984;BME280;15317;50.360;8.726;2022-12-10T21:20:50;98920.53;;;-2.41;100.00
27984;BME280;15317;50.360;8.726;2022-12-10T21:24:52;98922.13;;;-2.39;100.00
27984;BME280;15317;50.360;8.726;2022-12-10T21:28:55;98924.22;;;-2.44;100.00
27984;BME280;15317;50.360;8.726;2022-12-10T21:32:59;98922.72;;;-2.48;100.00
27984;BME280;15317;50.360;8.726;2022-12-10T21:37:01;98914.84;;;-2.35;100.00